SNQ weather

San Joaquin Aitport
Cajeme, Sonora, Mexico

Public forecast

Using degrees Celsius for public forecast. Weather courtesy of forecast.io.

Closest aviation weather report (METAR) to San Joaquin Aitport

Report is more than 2 hours old.

Closest report is Ciudad Obregón International Airport, 7.5 nm (13.9 km) ENE. Retrieved 2020/07/07 00:43 UTC (2 hours ago):

MMCN 070043Z 22006KT 10SM SCT200 35/17 A2972 RMK 8/003 DSNT CB NE E HZY

Closest aviation forecast (TAF) to San Joaquin Aitport

Forecast is more than 6 hours old.

Closest forecast is Ciudad Obregón International Airport, 7.5 nm (13.9 km) ENE. Retrieved 2020/07/06 18:27 UTC (9 hours ago):

TAF MMCN 061720Z 0618/0718 22010KT P6SM SCT100 BECMG 0621/0622 12015KT SCT100 BKN250 FM070200 14005KT P6SM SCT100 SCT250 BECMG 0716/0717 22008KT